sensor_id;sensor_type;location;lat;lon;timestamp;temperature;humidity
21805;DHT22;11064;47.102;15.452;2023-02-04T06:02:41;2.70;99.90
21805;DHT22;11064;47.102;15.452;2023-02-04T06:05:07;2.70;99.90
21805;DHT22;11064;47.102;15.452;2023-02-04T06:07:33;2.70;99.90
21805;DHT22;11064;47.102;15.452;2023-02-04T06:09:58;2.70;99.90
21805;DHT22;11064;47.102;15.452;2023-02-04T06:12:24;2.70;99.90
21805;DHT22;11064;47.102;15.452;2023-02-04T06:14:50;2.70;99.90
21805;DHT22;11064;47.102;15.452;2023-02-04T06:17:16;2.70;99.90
21805;DHT22;11064;47.102;15.452;2023-02-04T06:19:42;2.70;99.90
21805;DHT22;11064;47.102;15.452;2023-02-04T06:22:08;2.60;99.90
21805;DHT22;11064;47.102;15.452;2023-02-04T06:24:33;2.70;99.90
21805;DHT22;11064;47.102;15.452;2023-02-04T06:26:59;2.70;99.90
21805;DHT22;11064;47.102;15.452;2023-02-04T06:29:25;2.70;99.90
21805;DHT22;11064;47.102;15.452;2023-02-04T06:31:51;2.70;99.90
21805;DHT22;11064;47.102;15.452;2023-02-04T06:34:17;2.70;99.90
21805;DHT22;11064;47.102;15.452;2023-02-04T06:36:42;2.80;99.90
21805;DHT22;11064;47.102;15.452;2023-02-04T06:39:08;2.80;99.90
21805;DHT22;11064;47.102;15.452;2023-02-04T06:41:34;2.80;99.90
21805;DHT22;11064;47.102;15.452;2023-02-04T06:44:00;2.90;99.90
21805;DHT22;11064;47.102;15.452;2023-02-04T06:46:26;2.90;99.90
21805;DHT22;11064;47.102;15.452;2023-02-04T06:48:51;3.00;99.90
21805;DHT22;11064;47.102;15.452;2023-02-04T06:51:17;3.00;99.90
21805;DHT22;11064;47.102;15.452;2023-02-04T06:53:43;2.90;99.90
21805;DHT22;11064;47.102;15.452;2023-02-04T06:56:10;2.80;99.90
21805;DHT22;11064;47.102;15.452;2023-02-04T06:58:37;2.80;99.90
21805;DHT22;11064;47.102;15.452;2023-02-04T07:01:03;2.70;99.90
21805;DHT22;11064;47.102;15.452;2023-02-04T07:03:30;2.60;99.90
21805;DHT22;11064;47.102;15.452;2023-02-04T07:05:56;2.30;99.90
21805;DHT22;11064;47.102;15.452;2023-02-04T07:08:22;2.20;99.90
21805;DHT22;11064;47.102;15.452;2023-02-04T07:10:48;2.00;99.90
21805;DHT22;11064;47.102;15.452;2023-02-04T07:13:14;2.00;99.90
21805;DHT22;11064;47.102;15.452;2023-02-04T07:15:40;1.90;99.90
21805;DHT22;11064;47.102;15.452;2023-02-04T07:18:05;1.90;99.90
21805;DHT22;11064;47.102;15.452;2023-02-04T07:20:31;1.90;99.90
21805;DHT22;11064;47.102;15.452;2023-02-04T07:22:57;1.90;99.90
21805;DHT22;11064;47.102;15.452;2023-02-04T07:25:23;1.90;99.90
21805;DHT22;11064;47.102;15.452;2023-02-04T07:27:48;2.00;99.90
21805;DHT22;11064;47.102;15.452;2023-02-04T07:30:15;2.10;99.90
21805;DHT22;11064;47.102;15.452;2023-02-04T07:32:40;2.10;99.90
21805;DHT22;11064;47.102;15.452;2023-02-04T07:35:06;2.20;99.90
21805;DHT22;11064;47.102;15.452;2023-02-04T07:37:32;2.10;99.90
21805;DHT22;11064;47.102;15.452;2023-02-04T07:39:58;2.20;99.90
21805;DHT22;11064;47.102;15.452;2023-02-04T07:42:24;2.20;99.90
21805;DHT22;11064;47.102;15.452;2023-02-04T07:44:50;2.20;99.90
21805;DHT22;11064;47.102;15.452;2023-02-04T07:47:16;2.10;99.90
21805;DHT22;11064;47.102;15.452;2023-02-04T07:49:41;2.00;99.90
21805;DHT22;11064;47.102;15.452;2023-02-04T07:52:07;2.00;99.90
21805;DHT22;11064;47.102;15.452;2023-02-04T07:54:34;1.90;99.90
21805;DHT22;11064;47.102;15.452;2023-02-04T07:57:00;1.80;99.90
21805;DHT22;11064;47.102;15.452;2023-02-04T07:59:25;1.80;99.90
21805;DHT22;11064;47.102;15.452;2023-02-04T08:01:51;1.70;99.90
21805;DHT22;11064;47.102;15.452;2023-02-04T08:04:17;1.70;99.90
21805;DHT22;11064;47.102;15.452;2023-02-04T08:06:43;1.60;99.90
21805;DHT22;11064;47.102;15.452;2023-02-04T08:09:09;1.60;99.90
21805;DHT22;11064;47.102;15.452;2023-02-04T08:11:34;1.60;99.90
21805;DHT22;11064;47.102;15.452;2023-02-04T08:14:00;1.50;99.90
21805;DHT22;11064;47.102;15.452;2023-02-04T08:16:26;1.60;99.90
21805;DHT22;11064;47.102;15.452;2023-02-04T08:18:52;1.60;99.90
21805;DHT22;11064;47.102;15.452;2023-02-04T08:21:18;1.70;99.90
21805;DHT22;11064;47.102;15.452;2023-02-04T08:23:44;1.80;99.90
21805;DHT22;11064;47.102;15.452;2023-02-04T08:26:10;1.80;99.90
21805;DHT22;11064;47.102;15.452;2023-02-04T08:28:37;1.90;99.90
21805;DHT22;11064;47.102;15.452;2023-02-04T08:31:06;2.10;99.90
21805;DHT22;11064;47.102;15.452;2023-02-04T08:33:37;2.20;99.90
21805;DHT22;11064;47.102;15.452;2023-02-04T08:36:05;2.20;99.90
21805;DHT22;11064;47.102;15.452;2023-02-04T08:38:31;2.40;99.90
21805;DHT22;11064;47.102;15.452;2023-02-04T08:40:57;2.40;99.90
21805;DHT22;11064;47.102;15.452;2023-02-04T08:43:25;2.50;99.90
21805;DHT22;11064;47.102;15.452;2023-02-04T08:45:51;2.50;99.90
21805;DHT22;11064;47.102;15.452;2023-02-04T08:48:17;2.60;99.90
21805;DHT22;11064;47.102;15.452;2023-02-04T08:50:43;2.90;99.90
21805;DHT22;11064;47.102;15.452;2023-02-04T08:53:09;2.90;99.90
21805;DHT22;11064;47.102;15.452;2023-02-04T08:55:35;3.00;99.90
21805;DHT22;11064;47.102;15.452;2023-02-04T08:58:00;3.10;99.90
21805;DHT22;11064;47.102;15.452;2023-02-04T09:00:27;3.20;99.90
21805;DHT22;11064;47.102;15.452;2023-02-04T09:02:54;3.20;99.90
21805;DHT22;11064;47.102;15.452;2023-02-04T09:05:20;3.30;99.90
21805;DHT22;11064;47.102;15.452;2023-02-04T09:07:46;3.30;99.90
21805;DHT22;11064;47.102;15.452;2023-02-04T09:10:12;3.40;99.90
21805;DHT22;11064;47.102;15.452;2023-02-04T09:12:37;3.50;99.90
21805;DHT22;11064;47.102;15.452;2023-02-04T09:15:03;3.50;99.90
21805;DHT22;11064;47.102;15.452;2023-02-04T09:17:29;3.50;99.90
21805;DHT22;11064;47.102;15.452;2023-02-04T09:19:55;3.60;99.90
21805;DHT22;11064;47.102;15.452;2023-02-04T09:22:21;3.70;99.90
21805;DHT22;11064;47.102;15.452;2023-02-04T09:24:47;3.80;99.90
21805;DHT22;11064;47.102;15.452;2023-02-04T09:27:13;3.70;99.60
21805;DHT22;11064;47.102;15.452;2023-02-04T09:29:39;3.80;99.90
21805;DHT22;11064;47.102;15.452;2023-02-04T09:32:04;3.70;98.80
21805;DHT22;11064;47.102;15.452;2023-02-04T09:34:31;3.80;98.10
21805;DHT22;11064;47.102;15.452;2023-02-04T09:36:57;3.80;97.70
21805;DHT22;11064;47.102;15.452;2023-02-04T09:39:23;3.80;96.10
21805;DHT22;11064;47.102;15.452;2023-02-04T09:41:50;3.90;95.00
21805;DHT22;11064;47.102;15.452;2023-02-04T09:44:20;4.00;97.60
21805;DHT22;11064;47.102;15.452;2023-02-04T09:46:55;3.90;95.60
21805;DHT22;11064;47.102;15.452;2023-02-04T09:49:22;3.90;95.50
21805;DHT22;11064;47.102;15.452;2023-02-04T09:51:49;3.90;96.70
21805;DHT22;11064;47.102;15.452;2023-02-04T09:54:17;3.90;95.60
21805;DHT22;11064;47.102;15.452;2023-02-04T09:56:44;3.90;96.20
21805;DHT22;11064;47.102;15.452;2023-02-04T09:59:16;3.90;95.90
21805;DHT22;11064;47.102;15.452;2023-02-04T10:01:42;4.00;96.50
21805;DHT22;11064;47.102;15.452;2023-02-04T10:04:11;4.00;95.30
21805;DHT22;11064;47.102;15.452;2023-02-04T10:06:42;4.00;97.50
21805;DHT22;11064;47.102;15.452;2023-02-04T10:09:10;4.10;96.10
21805;DHT22;11064;47.102;15.452;2023-02-04T10:11:38;4.10;95.70
21805;DHT22;11064;47.102;15.452;2023-02-04T10:14:07;3.90;97.20
21805;DHT22;11064;47.102;15.452;2023-02-04T10:16:34;3.70;98.80
21805;DHT22;11064;47.102;15.452;2023-02-04T10:19:05;3.70;99.90
21805;DHT22;11064;47.102;15.452;2023-02-04T10:21:34;3.90;99.90
21805;DHT22;11064;47.102;15.452;2023-02-04T10:24:04;3.80;99.40
21805;DHT22;11064;47.102;15.452;2023-02-04T10:26:31;3.40;99.90
21805;DHT22;11064;47.102;15.452;2023-02-04T10:29:05;3.20;99.90
21805;DHT22;11064;47.102;15.452;2023-02-04T10:31:39;3.00;99.90
21805;DHT22;11064;47.102;15.452;2023-02-04T10:34:14;2.90;99.90
21805;DHT22;11064;47.102;15.452;2023-02-04T10:36:42;2.80;99.90
21805;DHT22;11064;47.102;15.452;2023-02-04T10:39:12;2.80;99.90
21805;DHT22;11064;47.102;15.452;2023-02-04T10:41:47;2.90;99.90
21805;DHT22;11064;47.102;15.452;2023-02-04T10:44:15;3.00;99.90
21805;DHT22;11064;47.102;15.452;2023-02-04T10:46:41;3.10;99.90
21805;DHT22;11064;47.102;15.452;2023-02-04T10:49:18;3.00;98.70
21805;DHT22;11064;47.102;15.452;2023-02-04T10:51:45;3.00;99.30
21805;DHT22;11064;47.102;15.452;2023-02-04T10:54:12;3.10;97.80
21805;DHT22;11064;47.102;15.452;2023-02-04T10:57:17;3.00;96.80
21805;DHT22;11064;47.102;15.452;2023-02-04T10:59:45;3.00;98.10
21805;DHT22;11064;47.102;15.452;2023-02-04T11:05:12;3.00;96.50
21805;DHT22;11064;47.102;15.452;2023-02-04T11:07:38;3.20;95.50
21805;DHT22;11064;47.102;15.452;2023-02-04T11:10:04;3.20;93.50
21805;DHT22;11064;47.102;15.452;2023-02-04T11:12:46;3.10;93.90
21805;DHT22;11064;47.102;15.452;2023-02-04T11:20:51;3.40;91.60
21805;DHT22;11064;47.102;15.452;2023-02-04T11:26:34;3.60;90.40
21805;DHT22;11064;47.102;15.452;2023-02-04T11:31:27;3.60;86.90
21805;DHT22;11064;47.102;15.452;2023-02-04T11:37:56;3.40;86.00
21805;DHT22;11064;47.102;15.452;2023-02-04T11:39:52;3.30;84.70
21805;DHT22;11064;47.102;15.452;2023-02-04T11:42:32;3.40;84.30
21805;DHT22;11064;47.102;15.452;2023-02-04T11:45:19;3.30;83.30
21805;DHT22;11064;47.102;15.452;2023-02-04T11:47:46;3.10;83.70
21805;DHT22;11064;47.102;15.452;2023-02-04T11:50:16;3.00;84.50
21805;DHT22;11064;47.102;15.452;2023-02-04T11:52:44;3.00;84.60
21805;DHT22;11064;47.102;15.452;2023-02-04T11:55:11;3.10;81.00
21805;DHT22;11064;47.102;15.452;2023-02-04T11:57:42;3.10;79.30
21805;DHT22;11064;47.102;15.452;2023-02-04T12:00:11;3.20;79.60
21805;DHT22;11064;47.102;15.452;2023-02-04T12:02:44;3.40;81.90
21805;DHT22;11064;47.102;15.452;2023-02-04T12:05:17;3.40;83.20
21805;DHT22;11064;47.102;15.452;2023-02-04T12:07:44;3.50;81.30
21805;DHT22;11064;47.102;15.452;2023-02-04T12:12:51;3.40;76.70
21805;DHT22;11064;47.102;15.452;2023-02-04T12:15:34;3.30;78.60
21805;DHT22;11064;47.102;15.452;2023-02-04T12:18:04;3.30;77.40
21805;DHT22;11064;47.102;15.452;2023-02-04T12:20:32;3.30;77.80
21805;DHT22;11064;47.102;15.452;2023-02-04T12:22:58;3.30;76.50
21805;DHT22;11064;47.102;15.452;2023-02-04T12:25:25;3.30;76.40
21805;DHT22;11064;47.102;15.452;2023-02-04T12:27:54;3.40;74.50
21805;DHT22;11064;47.102;15.452;2023-02-04T12:30:21;3.40;73.80
21805;DHT22;11064;47.102;15.452;2023-02-04T12:32:48;3.40;74.50
21805;DHT22;11064;47.102;15.452;2023-02-04T12:35:14;3.40;75.60
21805;DHT22;11064;47.102;15.452;2023-02-04T12:37:40;3.50;74.40
21805;DHT22;11064;47.102;15.452;2023-02-04T12:40:06;3.50;74.70
21805;DHT22;11064;47.102;15.452;2023-02-04T12:42:32;3.50;75.50
21805;DHT22;11064;47.102;15.452;2023-02-04T12:44:58;3.50;76.40
21805;DHT22;11064;47.102;15.452;2023-02-04T12:47:24;3.40;75.60
21805;DHT22;11064;47.102;15.452;2023-02-04T12:49:50;3.30;75.40
21805;DHT22;11064;47.102;15.452;2023-02-04T12:52:15;3.20;76.70
21805;DHT22;11064;47.102;15.452;2023-02-04T12:54:41;3.20;77.50
21805;DHT22;11064;47.102;15.452;2023-02-04T12:57:08;3.20;78.00
21805;DHT22;11064;47.102;15.452;2023-02-04T12:59:36;3.20;76.70
21805;DHT22;11064;47.102;15.452;2023-02-04T13:02:02;3.20;78.40
21805;DHT22;11064;47.102;15.452;2023-02-04T13:04:28;3.30;77.30
21805;DHT22;11064;47.102;15.452;2023-02-04T13:06:53;3.30;78.40
21805;DHT22;11064;47.102;15.452;2023-02-04T13:09:19;3.40;78.80
21805;DHT22;11064;47.102;15.452;2023-02-04T13:11:45;3.40;77.00
21805;DHT22;11064;47.102;15.452;2023-02-04T13:14:11;3.40;80.10
21805;DHT22;11064;47.102;15.452;2023-02-04T13:16:36;3.40;78.30
21805;DHT22;11064;47.102;15.452;2023-02-04T13:19:02;3.30;78.50
21805;DHT22;11064;47.102;15.452;2023-02-04T13:21:28;3.30;77.60
21805;DHT22;11064;47.102;15.452;2023-02-04T13:23:55;3.20;78.50
21805;DHT22;11064;47.102;15.452;2023-02-04T13:26:21;3.10;79.50
21805;DHT22;11064;47.102;15.452;2023-02-04T13:28:47;3.10;79.00
21805;DHT22;11064;47.102;15.452;2023-02-04T13:31:13;3.10;79.40
21805;DHT22;11064;47.102;15.452;2023-02-04T13:33:39;3.10;79.70
21805;DHT22;11064;47.102;15.452;2023-02-04T13:36:05;3.00;81.30
21805;DHT22;11064;47.102;15.452;2023-02-04T13:38:31;3.00;80.10
21805;DHT22;11064;47.102;15.452;2023-02-04T13:40:57;3.00;80.30
21805;DHT22;11064;47.102;15.452;2023-02-04T13:43:23;3.00;80.60
21805;DHT22;11064;47.102;15.452;2023-02-04T13:45:49;3.10;81.60
21805;DHT22;11064;47.102;15.452;2023-02-04T13:48:15;3.10;80.60
21805;DHT22;11064;47.102;15.452;2023-02-04T13:50:41;3.10;80.20
21805;DHT22;11064;47.102;15.452;2023-02-04T13:53:07;3.10;82.50
21805;DHT22;11064;47.102;15.452;2023-02-04T13:55:33;3.00;80.80
21805;DHT22;11064;47.102;15.452;2023-02-04T13:57:59;3.00;82.50
21805;DHT22;11064;47.102;15.452;2023-02-04T14:00:24;3.00;82.60
21805;DHT22;11064;47.102;15.452;2023-02-04T14:02:50;3.00;84.10
21805;DHT22;11064;47.102;15.452;2023-02-04T14:05:16;3.00;82.10
21805;DHT22;11064;47.102;15.452;2023-02-04T14:07:42;3.00;85.40
21805;DHT22;11064;47.102;15.452;2023-02-04T14:10:08;3.10;84.50
21805;DHT22;11064;47.102;15.452;2023-02-04T14:12:34;3.00;82.50
21805;DHT22;11064;47.102;15.452;2023-02-04T14:15:00;2.90;83.30
21805;DHT22;11064;47.102;15.452;2023-02-04T14:17:25;2.80;83.20
21805;DHT22;11064;47.102;15.452;2023-02-04T14:19:51;2.80;82.70
21805;DHT22;11064;47.102;15.452;2023-02-04T14:22:17;2.80;85.60
21805;DHT22;11064;47.102;15.452;2023-02-04T14:24:43;2.80;86.00
21805;DHT22;11064;47.102;15.452;2023-02-04T14:27:12;2.80;89.10
21805;DHT22;11064;47.102;15.452;2023-02-04T14:29:39;2.80;82.30
21805;DHT22;11064;47.102;15.452;2023-02-04T14:32:05;2.80;82.30
21805;DHT22;11064;47.102;15.452;2023-02-04T14:34:31;2.70;84.30
21805;DHT22;11064;47.102;15.452;2023-02-04T14:36:57;2.70;83.30
21805;DHT22;11064;47.102;15.452;2023-02-04T14:39:23;2.70;83.60
21805;DHT22;11064;47.102;15.452;2023-02-04T14:41:49;2.70;82.00
21805;DHT22;11064;47.102;15.452;2023-02-04T14:44:15;2.70;81.20
21805;DHT22;11064;47.102;15.452;2023-02-04T14:46:48;2.70;81.70
21805;DHT22;11064;47.102;15.452;2023-02-04T14:49:15;2.60;83.40
21805;DHT22;11064;47.102;15.452;2023-02-04T14:51:41;2.60;80.90
21805;DHT22;11064;47.102;15.452;2023-02-04T14:54:07;2.60;82.20
21805;DHT22;11064;47.102;15.452;2023-02-04T14:56:33;2.60;83.30
21805;DHT22;11064;47.102;15.452;2023-02-04T14:58:59;2.60;82.80
21805;DHT22;11064;47.102;15.452;2023-02-04T15:01:25;2.60;82.00
21805;DHT22;11064;47.102;15.452;2023-02-04T15:03:52;2.50;82.80
21805;DHT22;11064;47.102;15.452;2023-02-04T15:06:18;2.50;81.60
21805;DHT22;11064;47.102;15.452;2023-02-04T15:08:44;2.50;82.30
21805;DHT22;11064;47.102;15.452;2023-02-04T15:11:11;2.40;83.50
21805;DHT22;11064;47.102;15.452;2023-02-04T15:13:37;2.30;81.90
21805;DHT22;11064;47.102;15.452;2023-02-04T15:16:03;2.30;82.20
21805;DHT22;11064;47.102;15.452;2023-02-04T15:18:28;2.30;83.10
21805;DHT22;11064;47.102;15.452;2023-02-04T15:20:54;2.30;82.90
21805;DHT22;11064;47.102;15.452;2023-02-04T15:23:20;2.20;82.70
21805;DHT22;11064;47.102;15.452;2023-02-04T15:25:46;2.20;82.60
21805;DHT22;11064;47.102;15.452;2023-02-04T15:28:12;2.20;82.20
21805;DHT22;11064;47.102;15.452;2023-02-04T15:30:38;2.20;81.80
21805;DHT22;11064;47.102;15.452;2023-02-04T15:33:04;2.20;82.50
21805;DHT22;11064;47.102;15.452;2023-02-04T15:35:31;2.10;84.20
21805;DHT22;11064;47.102;15.452;2023-02-04T15:37:57;2.00;83.90
21805;DHT22;11064;47.102;15.452;2023-02-04T15:40:22;1.80;85.60
21805;DHT22;11064;47.102;15.452;2023-02-04T15:42:48;1.70;85.10
21805;DHT22;11064;47.102;15.452;2023-02-04T15:45:15;1.80;84.40
21805;DHT22;11064;47.102;15.452;2023-02-04T15:47:41;1.80;84.40
21805;DHT22;11064;47.102;15.452;2023-02-04T15:50:07;1.70;85.80
21805;DHT22;11064;47.102;15.452;2023-02-04T15:52:35;1.40;86.60
21805;DHT22;11064;47.102;15.452;2023-02-04T15:55:01;1.30;86.40
21805;DHT22;11064;47.102;15.452;2023-02-04T15:57:27;1.20;86.70
21805;DHT22;11064;47.102;15.452;2023-02-04T15:59:53;1.00;89.30
21805;DHT22;11064;47.102;15.452;2023-02-04T16:02:19;0.80;89.90
21805;DHT22;11064;47.102;15.452;2023-02-04T16:04:45;0.70;89.50
21805;DHT22;11064;47.102;15.452;2023-02-04T16:07:12;0.70;89.00
21805;DHT22;11064;47.102;15.452;2023-02-04T16:09:38;0.80;88.30
21805;DHT22;11064;47.102;15.452;2023-02-04T16:12:04;0.70;87.60
21805;DHT22;11064;47.102;15.452;2023-02-04T16:14:30;0.90;87.40
21805;DHT22;11064;47.102;15.452;2023-02-04T16:16:56;0.70;87.30
21805;DHT22;11064;47.102;15.452;2023-02-04T16:19:22;0.50;89.30
21805;DHT22;11064;47.102;15.452;2023-02-04T16:21:49;0.50;90.60
21805;DHT22;11064;47.102;15.452;2023-02-04T16:24:15;0.60;87.80
21805;DHT22;11064;47.102;15.452;2023-02-04T16:26:44;0.70;86.80
21805;DHT22;11064;47.102;15.452;2023-02-04T16:29:11;0.50;87.50
21805;DHT22;11064;47.102;15.452;2023-02-04T16:31:37;0.40;89.50
21805;DHT22;11064;47.102;15.452;2023-02-04T16:34:03;0.20;92.20
21805;DHT22;11064;47.102;15.452;2023-02-04T16:36:29;0.00;92.80
21805;DHT22;11064;47.102;15.452;2023-02-04T16:38:55;-0.10;91.30
21805;DHT22;11064;47.102;15.452;2023-02-04T16:41:23;-0.20;92.00
21805;DHT22;11064;47.102;15.452;2023-02-04T16:43:49;-0.40;93.20
21805;DHT22;11064;47.102;15.452;2023-02-04T16:46:16;-0.40;92.00
21805;DHT22;11064;47.102;15.452;2023-02-04T16:48:42;-0.50;92.20
21805;DHT22;11064;47.102;15.452;2023-02-04T16:51:08;-0.60;92.70
21805;DHT22;11064;47.102;15.452;2023-02-04T16:53:34;-0.40;91.00
21805;DHT22;11064;47.102;15.452;2023-02-04T16:56:00;-0.60;91.80
21805;DHT22;11064;47.102;15.452;2023-02-04T16:58:27;-0.30;88.50
21805;DHT22;11064;47.102;15.452;2023-02-04T17:00:53;0.20;84.50
21805;DHT22;11064;47.102;15.452;2023-02-04T17:03:21;0.30;83.90
21805;DHT22;11064;47.102;15.452;2023-02-04T17:05:47;0.20;86.30
21805;DHT22;11064;47.102;15.452;2023-02-04T17:08:13;0.00;87.20
21805;DHT22;11064;47.102;15.452;2023-02-04T17:10:40;0.00;84.80
21805;DHT22;11064;47.102;15.452;2023-02-04T17:13:24;-0.20;87.30
21805;DHT22;11064;47.102;15.452;2023-02-04T17:15:50;-0.30;86.60
21805;DHT22;11064;47.102;15.452;2023-02-04T17:18:16;-0.10;85.60
21805;DHT22;11064;47.102;15.452;2023-02-04T17:20:42;-0.10;87.50
21805;DHT22;11064;47.102;15.452;2023-02-04T17:23:08;0.10;83.40
21805;DHT22;11064;47.102;15.452;2023-02-04T17:25:34;0.30;82.50
21805;DHT22;11064;47.102;15.452;2023-02-04T17:28:00;0.70;80.70
21805;DHT22;11064;47.102;15.452;2023-02-04T17:30:26;0.80;80.00
21805;DHT22;11064;47.102;15.452;2023-02-04T17:32:52;0.70;81.10
21805;DHT22;11064;47.102;15.452;2023-02-04T17:35:18;0.50;81.30
21805;DHT22;11064;47.102;15.452;2023-02-04T17:37:44;0.50;80.90
21805;DHT22;11064;47.102;15.452;2023-02-04T17:40:10;0.50;80.90
21805;DHT22;11064;47.102;15.452;2023-02-04T17:42:40;0.60;80.70
21805;DHT22;11064;47.102;15.452;2023-02-04T17:45:06;0.60;80.60
21805;DHT22;11064;47.102;15.452;2023-02-04T17:47:35;0.40;81.10
21805;DHT22;11064;47.102;15.452;2023-02-04T17:50:04;0.60;83.40
21805;DHT22;11064;47.102;15.452;2023-02-04T17:52:31;0.60;82.20
21805;DHT22;11064;47.102;15.452;2023-02-04T17:55:24;0.60;82.00
21805;DHT22;11064;47.102;15.452;2023-02-04T17:57:52;0.50;82.40
21805;DHT22;11064;47.102;15.452;2023-02-04T18:00:21;0.60;82.20
21805;DHT22;11064;47.102;15.452;2023-02-04T18:02:49;0.60;82.30
21805;DHT22;11064;47.102;15.452;2023-02-04T18:05:26;0.60;82.20
21805;DHT22;11064;47.102;15.452;2023-02-04T18:07:58;0.80;82.50
21805;DHT22;11064;47.102;15.452;2023-02-04T18:10:29;0.80;82.50
21805;DHT22;11064;47.102;15.452;2023-02-04T18:13:03;0.80;82.00
21805;DHT22;11064;47.102;15.452;2023-02-04T18:15:31;0.60;82.40
21805;DHT22;11064;47.102;15.452;2023-02-04T18:18:07;0.50;83.00
21805;DHT22;11064;47.102;15.452;2023-02-04T18:20:37;0.20;83.90
21805;DHT22;11064;47.102;15.452;2023-02-04T18:23:14;0.10;84.40
21805;DHT22;11064;47.102;15.452;2023-02-04T18:25:41;0.00;84.60
21805;DHT22;11064;47.102;15.452;2023-02-04T18:28:26;0.00;85.10
21805;DHT22;11064;47.102;15.452;2023-02-04T18:30:53;-0.20;85.40
21805;DHT22;11064;47.102;15.452;2023-02-04T18:33:23;-0.10;86.00
21805;DHT22;11064;47.102;15.452;2023-02-04T18:35:51;0.20;84.90
21805;DHT22;11064;47.102;15.452;2023-02-04T18:38:29;0.20;83.90
21805;DHT22;11064;47.102;15.452;2023-02-04T18:43:49;0.10;84.80
21805;DHT22;11064;47.102;15.452;2023-02-04T18:46:27;0.20;84.10
21805;DHT22;11064;47.102;15.452;2023-02-04T18:49:06;0.20;83.80
21805;DHT22;11064;47.102;15.452;2023-02-04T18:51:41;0.20;83.40
21805;DHT22;11064;47.102;15.452;2023-02-04T18:54:34;0.10;83.70
21805;DHT22;11064;47.102;15.452;2023-02-04T18:57:19;-0.20;85.80
21805;DHT22;11064;47.102;15.452;2023-02-04T19:00:21;-0.30;85.50
21805;DHT22;11064;47.102;15.452;2023-02-04T19:02:54;-0.20;86.00
21805;DHT22;11064;47.102;15.452;2023-02-04T19:05:35;-0.20;85.50
21805;DHT22;11064;47.102;15.452;2023-02-04T19:10:32;-0.20;85.00
21805;DHT22;11064;47.102;15.452;2023-02-04T19:15:54;0.20;83.80
21805;DHT22;11064;47.102;15.452;2023-02-04T19:18:36;0.40;83.60
21805;DHT22;11064;47.102;15.452;2023-02-04T19:21:26;0.40;83.20
21805;DHT22;11064;47.102;15.452;2023-02-04T19:24:25;0.30;83.40
21805;DHT22;11064;47.102;15.452;2023-02-04T19:27:32;0.20;84.20
21805;DHT22;11064;47.102;15.452;2023-02-04T19:33:14;0.40;82.80
21805;DHT22;11064;47.102;15.452;2023-02-04T19:35:41;0.50;82.20
21805;DHT22;11064;47.102;15.452;2023-02-04T19:40:52;0.40;82.60
21805;DHT22;11064;47.102;15.452;2023-02-04T19:43:26;0.30;82.70
21805;DHT22;11064;47.102;15.452;2023-02-04T19:45:58;0.30;82.80
21805;DHT22;11064;47.102;15.452;2023-02-04T19:48:35;0.30;82.20
21805;DHT22;11064;47.102;15.452;2023-02-04T19:53:50;0.20;81.90
21805;DHT22;11064;47.102;15.452;2023-02-04T19:58:53;0.40;80.70
21805;DHT22;11064;47.102;15.452;2023-02-04T20:01:20;0.30;81.40
21805;DHT22;11064;47.102;15.452;2023-02-04T20:03:48;0.30;81.70
21805;DHT22;11064;47.102;15.452;2023-02-04T20:06:36;0.20;82.00
21805;DHT22;11064;47.102;15.452;2023-02-04T20:09:03;0.20;81.40
21805;DHT22;11064;47.102;15.452;2023-02-04T20:11:44;0.30;80.70
21805;DHT22;11064;47.102;15.452;2023-02-04T20:16:54;0.30;80.90
21805;DHT22;11064;47.102;15.452;2023-02-04T20:22:22;0.20;82.20
21805;DHT22;11064;47.102;15.452;2023-02-04T20:24:58;0.20;82.20
21805;DHT22;11064;47.102;15.452;2023-02-04T20:27:39;0.40;79.70
21805;DHT22;11064;47.102;15.452;2023-02-04T20:32:44;0.30;80.90
21805;DHT22;11064;47.102;15.452;2023-02-04T20:37:55;0.20;82.00
21805;DHT22;11064;47.102;15.452;2023-02-04T20:40:36;0.10;82.30
21805;DHT22;11064;47.102;15.452;2023-02-04T20:43:05;0.20;82.20
21805;DHT22;11064;47.102;15.452;2023-02-04T20:45:39;0.20;82.40
21805;DHT22;11064;47.102;15.452;2023-02-04T20:53:25;0.00;83.50
21805;DHT22;11064;47.102;15.452;2023-02-04T20:55:55;0.00;84.00
21805;DHT22;11064;47.102;15.452;2023-02-04T20:58:33;0.10;83.50
21805;DHT22;11064;47.102;15.452;2023-02-04T21:01:00;0.20;82.10
21805;DHT22;11064;47.102;15.452;2023-02-04T21:03:35;0.10;82.40
21805;DHT22;11064;47.102;15.452;2023-02-04T21:06:04;0.10;83.00
21805;DHT22;11064;47.102;15.452;2023-02-04T21:08:44;0.10;83.10
21805;DHT22;11064;47.102;15.452;2023-02-04T21:11:12;0.10;83.30
21805;DHT22;11064;47.102;15.452;2023-02-04T21:13:38;0.00;82.60
21805;DHT22;11064;47.102;15.452;2023-02-04T21:16:05;0.00;82.40
21805;DHT22;11064;47.102;15.452;2023-02-04T21:18:31;0.00;82.40
21805;DHT22;11064;47.102;15.452;2023-02-04T21:21:00;-0.10;83.20
21805;DHT22;11064;47.102;15.452;2023-02-04T21:23:27;-0.30;84.30
21805;DHT22;11064;47.102;15.452;2023-02-04T21:25:52;-0.20;83.70
21805;DHT22;11064;47.102;15.452;2023-02-04T21:28:18;-0.30;83.60
21805;DHT22;11064;47.102;15.452;2023-02-04T21:30:44;-0.30;83.40
21805;DHT22;11064;47.102;15.452;2023-02-04T21:33:10;-0.40;84.60
21805;DHT22;11064;47.102;15.452;2023-02-04T21:35:37;-0.40;83.20
21805;DHT22;11064;47.102;15.452;2023-02-04T21:38:04;-0.40;84.20
21805;DHT22;11064;47.102;15.452;2023-02-04T21:40:32;-0.40;83.10
21805;DHT22;11064;47.102;15.452;2023-02-04T21:42:58;-0.40;82.50
21805;DHT22;11064;47.102;15.452;2023-02-04T21:45:24;-0.40;82.80
21805;DHT22;11064;47.102;15.452;2023-02-04T21:47:51;-0.50;83.30
21805;DHT22;11064;47.102;15.452;2023-02-04T21:50:19;-0.60;84.00
21805;DHT22;11064;47.102;15.452;2023-02-04T21:52:46;-0.80;84.50
21805;DHT22;11064;47.102;15.452;2023-02-04T21:55:13;-0.90;84.40
21805;DHT22;11064;47.102;15.452;2023-02-04T21:57:40;-0.90;84.90
21805;DHT22;11064;47.102;15.452;2023-02-04T22:00:07;-1.10;85.90
21805;DHT22;11064;47.102;15.452;2023-02-04T22:02:33;-1.10;86.80
21805;DHT22;11064;47.102;15.452;2023-02-04T22:04:59;-1.10;85.80
21805;DHT22;11064;47.102;15.452;2023-02-04T22:07:25;-1.10;86.20
21805;DHT22;11064;47.102;15.452;2023-02-04T22:09:51;-1.30;87.20
21805;DHT22;11064;47.102;15.452;2023-02-04T22:12:17;-1.20;86.90
21805;DHT22;11064;47.102;15.452;2023-02-04T22:14:43;-1.00;86.90
21805;DHT22;11064;47.102;15.452;2023-02-04T22:17:27;-0.90;84.00
21805;DHT22;11064;47.102;15.452;2023-02-04T22:19:53;-0.80;84.50
21805;DHT22;11064;47.102;15.452;2023-02-04T22:22:19;-0.70;83.70
21805;DHT22;11064;47.102;15.452;2023-02-04T22:24:45;-0.70;83.40
21805;DHT22;11064;47.102;15.452;2023-02-04T22:27:12;-0.70;84.00
21805;DHT22;11064;47.102;15.452;2023-02-04T22:29:38;-0.70;83.80
21805;DHT22;11064;47.102;15.452;2023-02-04T22:32:04;-0.60;83.30
21805;DHT22;11064;47.102;15.452;2023-02-04T22:34:30;-0.60;83.10